Time;durP1;ratioP1;P1;durP2;ratioP2;P2;SDS_P1;SDS_P2;PMS_P1;PMS_P2;Temp;Humidity;BMP_temperature;BMP_pressure;BME280_temperature;BME280_humidity;BME280_pressure;Samples;Min_cycle;Max_cycle;Signal;HPM_P1;HPM_P2
2021/12/20 00:01:57;;;;;;;19.90;6.35;;;;;;;5.51;100.00;102645.31;5000070;28;20128;-80
2021/12/20 00:04:23;;;;;;;18.77;5.50;;;;;;;5.53;100.00;102643.47;5011593;28;20029;-80
2021/12/20 00:06:48;;;;;;;18.55;5.90;;;;;;;5.50;100.00;102643.53;5011522;28;20050;-80
2021/12/20 00:09:14;;;;;;;18.40;5.93;;;;;;;5.52;100.00;102647.06;5013540;28;20100;-80
2021/12/20 00:11:39;;;;;;;17.90;5.78;;;;;;;5.50;100.00;102640.88;5012954;28;20148;-80
2021/12/20 00:14:04;;;;;;;20.70;5.97;;;;;;;5.50;100.00;102643.53;5012158;28;20099;-80
2021/12/20 00:16:30;;;;;;;24.10;6.32;;;;;;;5.52;100.00;102643.50;5012994;28;20061;-80
2021/12/20 00:18:55;;;;;;;16.60;5.28;;;;;;;5.53;100.00;102645.25;4994653;28;20455;-80
2021/12/20 00:21:21;;;;;;;20.13;5.90;;;;;;;5.51;99.94;102645.31;5011543;28;20036;-80
2021/12/20 00:23:46;;;;;;;24.52;6.25;;;;;;;5.52;100.00;102647.06;5020332;28;20029;-80
2021/12/20 00:26:11;;;;;;;19.42;6.00;;;;;;;5.54;100.00;102642.56;4996629;28;20018;-80
2021/12/20 00:28:38;;;;;;;17.55;5.47;;;;;;;5.54;99.99;102645.22;5005693;28;20116;-80
2021/12/20 00:31:04;;;;;;;19.02;5.00;;;;;;;5.54;99.88;102644.38;5003965;28;20112;-80
2021/12/20 00:33:33;;;;;;;17.65;5.68;;;;;;;5.54;99.72;102649.69;5017749;28;20040;-80
2021/12/20 00:36:01;;;;;;;20.23;6.38;;;;;;;5.58;99.90;102646.06;4994040;28;20833;-80
2021/12/20 00:41:10;;;;;;;22.27;5.65;;;;;;;5.54;99.38;102639.91;5011405;28;20049;-80
2021/12/20 00:43:35;;;;;;;21.98;5.40;;;;;;;5.52;99.14;102636.41;4999938;28;20037;-80
2021/12/20 00:46:01;;;;;;;16.42;5.22;;;;;;;5.51;99.27;102631.97;4994148;28;20037;-80
2021/12/20 00:48:26;;;;;;;17.20;4.95;;;;;;;5.50;99.29;102630.22;5015989;28;20060;-80
2021/12/20 00:50:51;;;;;;;19.17;5.35;;;;;;;5.51;99.42;102637.31;4993167;28;20050;-80
2021/12/20 00:53:17;;;;;;;20.70;5.82;;;;;;;5.52;99.39;102627.50;5002076;28;20034;-80
2021/12/20 00:55:43;;;;;;;19.08;5.05;;;;;;;5.50;99.20;102637.34;5012987;28;20034;-80
2021/12/20 00:58:09;;;;;;;15.63;4.60;;;;;;;5.49;99.21;102622.25;5008569;28;20498;-80
2021/12/20 01:00:38;;;;;;;16.30;4.75;;;;;;;5.47;99.33;102637.41;5017858;28;20029;-80
2021/12/20 01:03:05;;;;;;;16.00;4.85;;;;;;;5.46;99.63;102633.88;4997170;28;20406;-80
2021/12/20 01:05:31;;;;;;;15.60;4.35;;;;;;;5.46;99.63;102636.56;5015011;28;20036;-80
2021/12/20 01:07:59;;;;;;;20.02;5.53;;;;;;;5.47;99.46;102627.63;5002800;28;20125;-80
2021/12/20 01:10:28;;;;;;;10.50;3.85;;;;;;;5.46;99.49;102630.31;4999727;28;20022;-80
2021/12/20 01:12:54;;;;;;;16.92;5.35;;;;;;;5.44;99.20;102635.69;5011976;28;20029;-80
2021/12/20 01:15:22;;;;;;;17.67;5.18;;;;;;;5.42;99.66;102635.72;4992713;28;20641;-80
2021/12/20 01:17:49;;;;;;;15.52;5.13;;;;;;;5.46;99.65;102636.56;4995521;28;20509;-80
2021/12/20 01:20:15;;;;;;;17.27;4.95;;;;;;;5.45;99.21;102639.22;4992423;28;20481;-80
2021/12/20 01:22:42;;;;;;;16.77;4.90;;;;;;;5.47;99.20;102646.28;5020487;28;20095;-80
2021/12/20 01:25:08;;;;;;;15.57;4.03;;;;;;;5.47;99.25;102640.94;5012294;28;20389;-80
2021/12/20 01:27:33;;;;;;;16.42;4.68;;;;;;;5.46;98.14;102639.22;4992872;28;20088;-80
2021/12/20 01:29:59;;;;;;;13.43;3.40;;;;;;;5.46;97.61;102639.22;5017849;28;20056;-80
2021/12/20 01:32:24;;;;;;;16.85;4.15;;;;;;;5.49;98.11;102635.56;5023828;28;20029;-80
2021/12/20 01:34:49;;;;;;;16.17;3.60;;;;;;;5.48;97.41;102632.03;5012540;28;20163;-80
2021/12/20 01:37:15;;;;;;;23.27;4.93;;;;;;;5.48;97.06;102629.38;5008633;28;20021;-80
2021/12/20 01:39:41;;;;;;;18.33;4.50;;;;;;;5.46;94.91;102631.22;4992226;28;20041;-80
2021/12/20 01:42:07;;;;;;;16.27;3.85;;;;;;;5.48;95.82;102629.38;5011376;28;20517;-80
2021/12/20 01:44:32;;;;;;;22.80;4.90;;;;;;;5.46;94.56;102630.31;4993434;28;20367;-80
2021/12/20 01:47:00;;;;;;;17.52;4.18;;;;;;;5.42;94.18;102625.06;4992806;28;20022;-80
2021/12/20 01:49:26;;;;;;;15.40;3.35;;;;;;;5.43;94.99;102625.94;4992051;28;20032;-80
2021/12/20 01:52:04;;;;;;;14.38;3.65;;;;;;;5.41;94.66;102623.28;4992048;28;20121;-80
2021/12/20 01:54:30;;;;;;;21.33;4.13;;;;;;;5.41;95.41;102633.97;5019093;28;20024;-80
2021/12/20 01:56:56;;;;;;;14.07;3.47;;;;;;;5.40;96.05;102621.56;5009061;28;20025;-80
2021/12/20 01:59:21;;;;;;;15.57;3.53;;;;;;;5.38;94.90;102627.84;4994669;28;20124;-80
2021/12/20 02:01:47;;;;;;;24.17;4.50;;;;;;;5.36;93.66;102630.53;5027293;28;20060;-80
2021/12/20 02:04:13;;;;;;;20.77;3.70;;;;;;;5.40;91.38;102628.66;5013113;28;20037;-80
2021/12/20 02:06:40;;;;;;;16.83;3.63;;;;;;;5.41;92.31;102622.44;5028910;28;20094;-80
2021/12/20 02:09:11;;;;;;;17.92;3.75;;;;;;;5.42;91.04;102624.19;5019457;28;20029;-80
2021/12/20 02:11:38;;;;;;;17.23;3.78;;;;;;;5.37;90.74;102608.31;4997408;28;20028;-80
2021/12/20 02:14:05;;;;;;;19.77;3.60;;;;;;;5.37;90.42;102618.06;5021150;28;20053;-80
2021/12/20 02:16:31;;;;;;;19.75;4.10;;;;;;;5.36;90.87;102626.97;5016987;28;20026;-80
2021/12/20 02:18:59;;;;;;;22.98;4.10;;;;;;;5.33;91.28;102619.06;5009844;28;20375;-80
2021/12/20 02:21:25;;;;;;;17.55;4.50;;;;;;;5.29;91.71;102618.25;5001551;28;20037;-80
2021/12/20 02:23:50;;;;;;;16.83;3.95;;;;;;;5.24;93.49;102613.03;5009794;28;20128;-80
2021/12/20 02:26:18;;;;;;;23.90;4.53;;;;;;;5.22;92.00;102612.16;5008751;28;20175;-80
2021/12/20 02:28:46;;;;;;;18.13;4.18;;;;;;;5.19;91.71;102616.72;5021742;28;20033;-80
2021/12/20 02:39:11;;;;;;;22.75;4.32;;;;;;;5.22;92.99;102609.50;5024182;28;20044;-80
2021/12/20 02:41:36;;;;;;;15.25;3.35;;;;;;;5.21;94.08;102607.78;5017765;28;20481;-80
2021/12/20 02:44:11;;;;;;;20.90;3.83;;;;;;;5.17;94.36;102610.53;5009898;28;20113;-80
2021/12/20 02:49:06;;;;;;;17.85;3.90;;;;;;;5.16;93.89;102622.97;5008753;28;20045;-80
2021/12/20 02:51:32;;;;;;;15.48;3.22;;;;;;;5.16;93.59;102611.44;5008999;28;20108;-80
2021/12/20 02:53:59;;;;;;;18.08;3.38;;;;;;;5.14;94.49;102610.59;5022208;28;20489;-80
2021/12/20 02:56:25;;;;;;;12.82;3.05;;;;;;;5.15;91.83;102610.56;5007616;28;20041;-80
2021/12/20 02:58:51;;;;;;;18.98;3.13;;;;;;;5.18;93.53;102609.63;5002103;28;20037;-80
2021/12/20 03:01:16;;;;;;;14.93;2.90;;;;;;;5.13;93.95;102606.19;5009624;28;20180;-80
2021/12/20 03:03:42;;;;;;;20.15;3.92;;;;;;;5.11;93.14;102610.66;5002465;28;20120;-80
2021/12/20 03:06:14;;;;;;;15.75;3.22;;;;;;;5.07;94.41;102604.53;5008264;28;20105;-80
2021/12/20 03:08:43;;;;;;;15.35;3.03;;;;;;;5.06;94.66;102610.75;4997524;28;20038;-80
2021/12/20 03:11:09;;;;;;;19.85;4.15;;;;;;;5.03;92.31;102611.69;4990564;28;20049;-80
2021/12/20 03:13:34;;;;;;;21.95;3.70;;;;;;;5.03;90.73;102610.84;4990216;28;20127;-80
2021/12/20 03:16:00;;;;;;;14.98;3.05;;;;;;;5.03;90.92;102613.50;5000809;28;20086;-80
2021/12/20 03:18:25;;;;;;;18.58;3.55;;;;;;;5.05;91.48;102614.34;5026244;28;20034;-80
2021/12/20 03:20:50;;;;;;;14.48;3.90;;;;;;;5.07;92.73;102615.19;4990945;28;20037;-80
2021/12/20 03:23:15;;;;;;;19.42;3.50;;;;;;;5.05;94.29;102606.34;4990949;28;20029;-80
2021/12/20 03:25:41;;;;;;;18.45;3.65;;;;;;;5.02;91.28;102593.97;4996631;28;20033;-80
2021/12/20 03:28:06;;;;;;;14.32;3.45;;;;;;;5.03;93.83;102598.38;5000069;28;20434;-80
2021/12/20 03:30:31;;;;;;;21.95;3.58;;;;;;;5.04;91.29;102602.81;5020061;28;20033;-80
2021/12/20 03:32:56;;;;;;;24.48;3.58;;;;;;;5.06;92.55;102605.44;5006471;28;20029;-80
2021/12/20 03:35:22;;;;;;;22.48;3.80;;;;;;;5.06;91.17;102605.44;5014461;28;20037;-80
2021/12/20 03:37:47;;;;;;;17.00;2.78;;;;;;;5.08;93.23;102609.84;5024686;28;20032;-80
2021/12/20 03:40:12;;;;;;;21.20;4.38;;;;;;;5.10;90.94;102604.47;5025309;28;20033;-80
2021/12/20 03:42:42;;;;;;;18.83;4.03;;;;;;;5.11;90.00;102608.00;5014912;28;20025;-80
2021/12/20 03:45:08;;;;;;;20.35;3.63;;;;;;;5.12;91.63;102605.28;4996394;28;20606;-80
2021/12/20 03:47:33;;;;;;;18.98;4.15;;;;;;;5.13;90.98;102609.72;5013520;28;20022;-80
2021/12/20 03:49:59;;;;;;;13.50;3.13;;;;;;;5.11;92.82;102608.91;4995842;28;20180;-80
2021/12/20 03:52:24;;;;;;;20.25;4.10;;;;;;;5.09;93.71;102610.69;4993739;28;20087;-80
2021/12/20 03:54:49;;;;;;;17.85;3.05;;;;;;;5.07;92.68;102608.06;5011415;28;20034;-79
2021/12/20 03:57:15;;;;;;;14.07;4.10;;;;;;;5.06;93.47;102600.09;5013047;28;20029;-79
2021/12/20 03:59:40;;;;;;;14.10;2.90;;;;;;;5.05;93.90;102603.69;5016270;28;20021;-80
2021/12/20 04:02:06;;;;;;;16.95;3.45;;;;;;;5.04;93.75;102607.28;4994582;28;20057;-80
2021/12/20 04:04:31;;;;;;;15.63;3.67;;;;;;;5.00;93.52;102609.09;5000771;28;20033;-80
2021/12/20 04:06:57;;;;;;;16.15;3.30;;;;;;;4.99;93.87;102610.03;5013485;28;20085;-80
2021/12/20 04:09:22;;;;;;;18.08;3.50;;;;;;;4.98;94.22;102602.06;5001680;28;20112;-80
2021/12/20 04:11:47;;;;;;;21.95;4.18;;;;;;;4.96;93.45;102607.41;4999077;28;20041;-80
2021/12/20 04:14:12;;;;;;;20.05;4.03;;;;;;;4.94;94.08;102600.38;5004071;28;20041;-80
2021/12/20 04:16:38;;;;;;;12.13;3.60;;;;;;;4.93;94.59;102599.50;4994244;28;20374;-80
2021/12/20 04:19:03;;;;;;;20.02;3.92;;;;;;;4.93;94.24;102606.63;5012413;28;20040;-80
2021/12/20 04:21:30;;;;;;;16.15;3.83;;;;;;;4.88;91.88;102599.59;4996328;28;20120;-80
2021/12/20 04:23:56;;;;;;;15.00;3.65;;;;;;;4.88;94.36;102602.25;5011672;28;20148;-80
2021/12/20 04:26:21;;;;;;;20.00;4.28;;;;;;;4.90;93.19;102604.88;5019450;28;20466;-79
2021/12/20 04:28:47;;;;;;;20.00;4.13;;;;;;;4.93;94.46;102604.81;5018563;28;20044;-80
2021/12/20 04:31:12;;;;;;;20.05;4.60;;;;;;;4.93;92.16;102611.94;5021113;28;20036;-80
2021/12/20 04:33:38;;;;;;;18.30;4.20;;;;;;;4.93;91.39;102607.47;5024784;28;20038;-79
2021/12/20 04:36:03;;;;;;;22.60;4.80;;;;;;;4.96;90.55;102604.75;5021255;28;20038;-79
2021/12/20 04:38:30;;;;;;;18.42;3.78;;;;;;;4.95;89.86;102603.00;4993890;28;20060;-79
2021/12/20 04:40:56;;;;;;;21.55;4.20;;;;;;;4.97;90.80;102605.66;5011499;28;20077;-79
2021/12/20 04:43:21;;;;;;;25.27;4.60;;;;;;;4.98;90.92;102602.06;4994135;28;20091;-80
2021/12/20 04:45:46;;;;;;;22.08;4.57;;;;;;;5.01;91.32;102599.34;5011762;28;20036;-80
2021/12/20 04:48:12;;;;;;;25.30;5.75;;;;;;;5.03;89.04;102601.03;5006411;28;20318;-80
2021/12/20 04:50:38;;;;;;;19.63;3.97;;;;;;;5.05;89.78;102609.00;5014531;28;20037;-80
2021/12/20 04:53:04;;;;;;;19.23;4.57;;;;;;;5.04;89.75;102607.28;5030904;28;20036;-80
2021/12/20 04:55:30;;;;;;;24.58;4.40;;;;;;;5.01;90.06;102607.34;4995098;28;20030;-80
2021/12/20 04:57:57;;;;;;;24.83;4.45;;;;;;;4.99;88.00;102606.47;5010007;28;20116;-80
2021/12/20 05:00:28;;;;;;;25.20;4.72;;;;;;;5.00;87.38;102601.13;5022819;28;20395;-80
2021/12/20 05:02:54;;;;;;;23.15;4.57;;;;;;;5.03;84.29;102598.38;5022670;28;20116;-80
2021/12/20 05:05:21;;;;;;;25.65;5.07;;;;;;;5.06;81.37;102605.44;4997387;28;20692;-80
2021/12/20 05:07:47;;;;;;;19.88;3.67;;;;;;;5.07;84.40;102601.88;5002930;28;20156;-80
2021/12/20 05:10:24;;;;;;;18.38;3.78;;;;;;;5.08;83.35;102603.59;4995529;28;20147;-80
2021/12/20 05:12:49;;;;;;;18.90;4.10;;;;;;;5.07;82.52;102608.06;4993007;28;20075;-79
2021/12/20 05:15:15;;;;;;;22.67;4.55;;;;;;;5.05;87.02;102611.66;5007101;28;20052;-79
2021/12/20 05:17:40;;;;;;;18.10;3.42;;;;;;;5.05;86.92;102615.22;5019161;28;21125;-80
2021/12/20 05:20:06;;;;;;;19.17;4.28;;;;;;;5.00;87.97;102608.25;5012126;28;20096;-80
2021/12/20 05:22:31;;;;;;;15.80;3.78;;;;;;;4.93;88.06;102609.28;4992388;28;20034;-80
2021/12/20 05:24:56;;;;;;;15.18;3.80;;;;;;;4.90;89.82;102604.88;5010458;28;20042;-80
2021/12/20 05:27:22;;;;;;;22.08;4.00;;;;;;;4.87;88.85;102612.94;4992395;28;20127;-80
2021/12/20 05:29:49;;;;;;;25.35;4.25;;;;;;;4.84;87.94;102605.03;4999283;28;20056;-80
2021/12/20 05:32:14;;;;;;;21.75;3.97;;;;;;;4.82;90.19;102614.84;4990763;28;20037;-80
2021/12/20 05:34:40;;;;;;;19.95;4.32;;;;;;;4.79;89.54;102599.78;5010884;28;20022;-79
2021/12/20 05:37:05;;;;;;;18.98;4.18;;;;;;;4.79;88.43;102604.22;5028408;28;20029;-79
2021/12/20 05:39:31;;;;;;;23.50;4.25;;;;;;;4.77;88.25;102609.59;4998549;28;20596;-80
2021/12/20 05:41:56;;;;;;;21.55;4.25;;;;;;;4.77;90.30;102614.06;5005621;28;20410;-80
2021/12/20 05:44:22;;;;;;;20.25;4.38;;;;;;;4.74;90.13;102612.31;4994114;28;20036;-80
2021/12/20 05:46:47;;;;;;;19.08;3.70;;;;;;;4.77;87.89;102609.59;4993130;28;20412;-80
2021/12/20 05:49:12;;;;;;;22.50;4.68;;;;;;;4.78;85.43;102614.00;4996621;28;20148;-80
2021/12/20 05:51:38;;;;;;;20.60;4.03;;;;;;;4.78;88.15;102614.00;4995189;28;20037;-80
2021/12/20 05:54:03;;;;;;;20.45;4.85;;;;;;;4.74;84.06;102612.31;4993634;28;20022;-80
2021/12/20 05:56:28;;;;;;;21.45;4.75;;;;;;;4.74;88.26;102612.31;4992310;28;20717;-80
2021/12/20 05:58:54;;;;;;;22.20;5.63;;;;;;;4.76;89.84;102614.94;5011150;28;20036;-80
2021/12/20 06:01:19;;;;;;;22.15;4.25;;;;;;;4.76;89.72;102615.84;5019549;28;20037;-79
2021/12/20 06:03:44;;;;;;;22.98;4.38;;;;;;;4.78;90.49;102619.34;4991891;28;20072;-80
2021/12/20 06:06:11;;;;;;;26.58;5.32;;;;;;;4.75;89.61;102621.22;5008929;28;20381;-80
2021/12/20 06:08:37;;;;;;;21.08;4.53;;;;;;;4.76;88.96;102614.94;4992489;28;20026;-80
2021/12/20 06:11:02;;;;;;;27.27;5.05;;;;;;;4.74;89.22;102617.66;5010387;28;20030;-80
2021/12/20 06:13:27;;;;;;;17.38;4.15;;;;;;;4.75;90.77;102616.75;5015920;28;20040;-80
2021/12/20 06:15:53;;;;;;;25.83;5.00;;;;;;;4.71;89.02;102617.72;4999645;28;20125;-80
2021/12/20 06:18:18;;;;;;;19.85;4.25;;;;;;;4.73;90.84;102621.25;5009431;28;20452;-80
2021/12/20 06:20:44;;;;;;;17.20;4.20;;;;;;;4.71;90.09;102623.03;4991751;28;20026;-80
2021/12/20 06:23:11;;;;;;;18.98;4.38;;;;;;;4.72;90.90;102635.47;4996346;28;20359;-80
2021/12/20 06:25:36;;;;;;;14.45;3.63;;;;;;;4.72;91.66;102627.47;5008454;28;20076;-79
2021/12/20 06:28:02;;;;;;;16.02;3.72;;;;;;;4.70;89.78;102629.25;4992784;28;20061;-79
2021/12/20 06:30:27;;;;;;;18.75;3.90;;;;;;;4.71;90.36;102620.38;5000696;28;20038;-79
2021/12/20 06:32:52;;;;;;;22.65;4.47;;;;;;;4.72;89.96;102627.47;4999695;28;20064;-80
2021/12/20 06:35:18;;;;;;;18.10;4.03;;;;;;;4.76;85.51;102622.94;5004374;28;20076;-80
2021/12/20 06:37:47;;;;;;;26.92;4.47;;;;;;;4.81;86.84;102631.72;4991074;28;20022;-79
2021/12/20 06:40:12;;;;;;;24.30;4.30;;;;;;;4.83;87.41;102630.78;5006638;28;20408;-79
2021/12/20 06:42:38;;;;;;;17.73;4.18;;;;;;;4.83;88.77;102636.13;4999518;28;20022;-80
2021/12/20 06:45:06;;;;;;;16.23;3.05;;;;;;;4.81;90.32;102643.25;5003470;28;20029;-79
2021/12/20 06:47:31;;;;;;;19.88;4.07;;;;;;;4.78;90.01;102635.31;5012570;28;20037;-79
2021/12/20 06:49:57;;;;;;;20.23;4.32;;;;;;;4.76;90.31;102639.81;5008113;28;20045;-80
2021/12/20 06:52:22;;;;;;;21.33;4.25;;;;;;;4.71;89.52;102637.25;4987946;28;20061;-79
2021/12/20 06:54:49;;;;;;;19.67;3.45;;;;;;;4.71;89.56;102647.00;5004596;28;20029;-79
2021/12/20 06:57:14;;;;;;;23.45;5.35;;;;;;;4.69;89.45;102646.19;4989925;28;20513;-80
2021/12/20 06:59:39;;;;;;;24.15;5.13;;;;;;;4.66;89.44;102648.91;4995418;28;20025;-79
2021/12/20 07:02:05;;;;;;;20.83;4.57;;;;;;;4.67;90.19;102643.53;5022456;28;20029;-79
2021/12/20 07:04:30;;;;;;;24.15;5.00;;;;;;;4.68;86.55;102642.63;5004129;28;20164;-79
2021/12/20 07:06:55;;;;;;;21.13;4.82;;;;;;;4.67;88.93;102654.19;5026455;28;20421;-79
2021/12/20 07:09:21;;;;;;;27.67;5.43;;;;;;;4.70;89.75;102655.91;5016716;28;20030;-79
2021/12/20 07:11:46;;;;;;;20.33;3.85;;;;;;;4.66;89.80;102644.44;4998053;28;20060;-79
2021/12/20 07:14:12;;;;;;;16.63;4.25;;;;;;;4.68;90.46;102647.94;4990862;28;20022;-79
2021/12/20 07:16:40;;;;;;;18.83;3.80;;;;;;;4.68;88.24;102657.72;5008096;28;20474;-80
2021/12/20 07:19:05;;;;;;;21.75;4.20;;;;;;;4.69;88.97;102656.81;5009165;28;20014;-80
2021/12/20 07:21:31;;;;;;;16.52;4.03;;;;;;;4.70;89.93;102651.47;4999048;28;20590;-80
2021/12/20 07:23:56;;;;;;;27.67;4.80;;;;;;;4.69;89.50;102655.03;5008827;28;20482;-80
2021/12/20 07:26:21;;;;;;;23.02;4.18;;;;;;;4.66;87.58;102649.78;4992049;28;20498;-80
2021/12/20 07:28:47;;;;;;;17.75;4.15;;;;;;;4.67;89.34;102658.63;4990973;28;20117;-79
2021/12/20 07:31:14;;;;;;;21.67;4.15;;;;;;;4.68;90.18;102658.59;4999269;28;20033;-79
2021/12/20 07:33:41;;;;;;;19.13;3.90;;;;;;;4.65;89.06;102663.13;5006298;28;20030;-79
2021/12/20 07:36:07;;;;;;;23.08;4.47;;;;;;;4.64;89.90;102664.00;5000689;28;20087;-80
2021/12/20 07:38:34;;;;;;;20.33;4.43;;;;;;;4.64;90.14;102656.91;5004962;28;20057;-79
2021/12/20 07:41:00;;;;;;;17.55;4.25;;;;;;;4.64;90.07;102653.38;5007738;28;20025;-79
2021/12/20 07:43:26;;;;;;;25.00;5.20;;;;;;;4.64;90.27;102656.03;5011103;28;20590;-80
2021/12/20 07:45:52;;;;;;;20.75;4.57;;;;;;;4.59;89.37;102657.91;4989337;28;20030;-79
2021/12/20 07:48:19;;;;;;;18.30;4.43;;;;;;;4.62;90.45;102663.19;4990033;28;20489;-80
2021/12/20 07:50:46;;;;;;;21.20;5.50;;;;;;;4.59;89.74;102660.56;4991512;28;20355;-79
2021/12/20 07:53:11;;;;;;;19.73;3.80;;;;;;;4.58;90.20;102664.13;5006942;28;20061;-79
2021/12/20 07:55:37;;;;;;;21.65;4.10;;;;;;;4.54;89.44;102661.53;4991087;28;20064;-80
2021/12/20 07:58:03;;;;;;;28.45;5.10;;;;;;;4.54;89.49;102660.66;4992049;28;20029;-80
2021/12/20 08:00:28;;;;;;;24.73;4.88;;;;;;;4.55;88.49;102673.97;5011862;28;20017;-80
2021/12/20 08:02:55;;;;;;;19.90;4.57;;;;;;;4.55;90.68;102662.41;5008986;28;20030;-80
2021/12/20 08:05:20;;;;;;;22.30;5.05;;;;;;;4.53;89.12;102674.88;4994121;28;20033;-79
2021/12/20 08:07:50;;;;;;;24.65;5.07;;;;;;;4.53;87.71;102670.41;5021113;28;20065;-79
2021/12/20 08:10:17;;;;;;;22.40;5.13;;;;;;;4.57;89.44;102675.69;5010084;28;20137;-79
2021/12/20 08:12:43;;;;;;;20.83;4.57;;;;;;;4.60;91.31;102672.97;5006172;28;20849;-80
2021/12/20 08:15:09;;;;;;;22.75;4.80;;;;;;;4.60;90.01;102673.88;4989356;28;20030;-79
2021/12/20 08:17:34;;;;;;;26.50;5.47;;;;;;;4.65;90.36;102682.63;5005271;28;20032;-79
2021/12/20 08:20:00;;;;;;;22.30;5.32;;;;;;;4.66;89.27;102673.75;5010367;28;20112;-79
2021/12/20 08:22:25;;;;;;;19.98;4.57;;;;;;;4.69;90.33;102673.69;4988173;28;20137;-80
2021/12/20 08:24:52;;;;;;;20.58;4.47;;;;;;;4.70;88.11;102682.53;5011103;28;20577;-80
2021/12/20 08:27:17;;;;;;;19.58;4.55;;;;;;;4.73;89.27;102678.03;5022750;28;20026;-80
2021/12/20 08:29:43;;;;;;;25.70;5.57;;;;;;;4.73;88.68;102688.69;5012917;28;20034;-80
2021/12/20 08:32:08;;;;;;;20.50;6.03;;;;;;;4.75;86.49;102680.69;4995732;28;20533;-80
2021/12/20 08:34:34;;;;;;;19.90;4.57;;;;;;;4.79;88.99;102674.38;5007901;28;20092;-79
2021/12/20 08:37:01;;;;;;;17.77;3.58;;;;;;;4.85;86.93;102676.06;4995038;28;20577;-79
2021/12/20 08:39:27;;;;;;;23.83;4.38;;;;;;;4.89;87.09;102681.28;5022397;28;20689;-79
2021/12/20 08:41:52;;;;;;;26.58;6.05;;;;;;;4.94;88.91;102672.34;4993013;28;20489;-79
2021/12/20 08:44:17;;;;;;;23.38;5.40;;;;;;;4.92;86.35;102675.03;4993161;28;20072;-79
2021/12/20 08:46:43;;;;;;;22.98;5.22;;;;;;;4.96;84.74;102674.03;4996147;28;20025;-79
2021/12/20 08:49:08;;;;;;;24.95;4.78;;;;;;;5.02;85.18;102681.03;5030988;28;20457;-79
2021/12/20 08:51:35;;;;;;;20.35;4.70;;;;;;;5.03;84.30;102685.44;4999353;28;20561;-79
2021/12/20 08:54:00;;;;;;;19.92;3.97;;;;;;;5.08;84.46;102688.88;4995292;28;20052;-79
2021/12/20 08:56:26;;;;;;;19.50;4.50;;;;;;;5.12;85.66;102685.25;4993498;28;20126;-79
2021/12/20 08:58:51;;;;;;;21.40;4.85;;;;;;;5.15;83.51;102684.31;4993061;28;20165;-79
2021/12/20 09:01:17;;;;;;;21.10;4.32;;;;;;;5.17;84.03;102683.38;5017366;28;20041;-79
2021/12/20 09:03:44;;;;;;;18.52;4.43;;;;;;;5.23;86.38;102677.91;5009801;28;20026;-79
2021/12/20 09:06:10;;;;;;;22.27;4.45;;;;;;;5.26;84.10;102676.97;5010651;28;20018;-79
2021/12/20 09:08:35;;;;;;;18.45;4.25;;;;;;;5.29;84.32;102676.91;5004691;28;20181;-79
2021/12/20 09:11:01;;;;;;;18.25;3.80;;;;;;;5.32;82.56;102683.97;5005350;28;20027;-79
2021/12/20 09:13:26;;;;;;;14.80;4.05;;;;;;;5.35;80.88;102683.91;4995547;28;20045;-80
2021/12/20 09:15:54;;;;;;;26.08;5.40;;;;;;;5.39;83.63;102689.13;4989092;28;20076;-80
2021/12/20 09:18:19;;;;;;;23.15;4.53;;;;;;;5.42;85.33;102690.84;4990179;28;20022;-80
2021/12/20 09:20:45;;;;;;;18.23;4.32;;;;;;;5.43;81.98;102690.81;5004143;28;20026;-80
2021/12/20 09:23:12;;;;;;;17.13;4.22;;;;;;;5.46;79.93;102695.22;5010103;28;20029;-79
2021/12/20 09:25:40;;;;;;;20.48;4.05;;;;;;;5.51;80.09;102697.78;4993624;28;20065;-79
2021/12/20 09:28:09;;;;;;;20.02;4.57;;;;;;;5.53;79.23;102686.13;4979948;28;20891;-79
2021/12/20 09:30:35;;;;;;;20.50;3.75;;;;;;;5.60;77.94;102695.75;4976749;28;20504;-79
2021/12/20 09:33:01;;;;;;;16.60;4.20;;;;;;;5.62;77.75;102693.06;4993044;28;20033;-80
2021/12/20 09:35:27;;;;;;;16.77;4.13;;;;;;;5.65;75.99;102694.78;4996247;28;20133;-80
2021/12/20 09:37:52;;;;;;;18.13;3.65;;;;;;;5.67;78.67;102696.50;5013093;28;20033;-79
2021/12/20 09:40:31;;;;;;;17.30;4.00;;;;;;;5.68;77.60;102705.38;5026044;28;20394;-79
2021/12/20 09:42:59;;;;;;;22.00;4.30;;;;;;;5.71;77.87;102710.63;5010962;28;20104;-79
2021/12/20 09:45:24;;;;;;;21.95;4.30;;;;;;;5.71;77.92;102706.19;5014223;28;20033;-79
2021/12/20 09:47:50;;;;;;;15.98;3.70;;;;;;;5.73;77.88;102712.38;4990984;28;20029;-79
2021/12/20 09:50:17;;;;;;;20.73;4.32;;;;;;;5.74;77.31;102716.81;5023151;28;20033;-80
2021/12/20 09:52:43;;;;;;;18.30;4.28;;;;;;;5.75;77.84;102717.66;5028560;28;20388;-80
2021/12/20 09:55:15;;;;;;;20.08;4.53;;;;;;;5.78;76.98;102713.16;5027944;28;20061;-80
2021/12/20 09:57:41;;;;;;;17.65;4.03;;;;;;;5.81;77.66;102725.53;5029916;28;20025;-79
2021/12/20 10:00:10;;;;;;;17.65;3.83;;;;;;;5.86;78.00;102717.44;5012709;28;20057;-79
2021/12/20 10:02:35;;;;;;;23.10;4.93;;;;;;;5.87;77.54;102711.16;5012366;28;20116;-79
2021/12/20 10:05:01;;;;;;;19.63;4.18;;;;;;;5.91;77.93;102713.72;5012001;28;20438;-80
2021/12/20 10:07:28;;;;;;;16.63;4.57;;;;;;;5.91;77.72;102713.72;5029469;28;20354;-80
2021/12/20 10:09:54;;;;;;;17.15;4.82;;;;;;;5.91;78.98;102703.03;5029904;28;20095;-80
2021/12/20 10:12:26;;;;;;;19.23;3.97;;;;;;;5.95;78.53;102707.41;5013258;28;20021;-79
2021/12/20 10:14:55;;;;;;;22.38;4.68;;;;;;;5.98;77.85;102714.50;5012132;28;20079;-79
2021/12/20 10:17:22;;;;;;;23.60;4.93;;;;;;;6.00;77.00;102706.44;5009795;28;20033;-80
2021/12/20 10:19:49;;;;;;;18.92;4.10;;;;;;;6.03;76.46;102722.38;4993506;28;20025;-80
2021/12/20 10:22:29;;;;;;;17.85;4.57;;;;;;;6.05;77.77;102709.91;4991170;28;20022;-80
2021/12/20 10:24:56;;;;;;;;;;;;;;;6.14;80.40;102712.34;4992516;28;20037;-80
2021/12/20 10:27:35;;;;;;;21.85;4.43;;;;;;;6.12;78.46;102715.03;5010101;28;19913;-80
2021/12/20 10:30:20;;;;;;;15.40;4.32;;;;;;;6.14;75.91;102715.00;5009832;28;20156;-80
2021/12/20 10:32:46;;;;;;;17.88;3.30;;;;;;;6.15;73.07;102711.44;5009367;28;20117;-80
2021/12/20 10:35:26;;;;;;;21.00;3.65;;;;;;;6.20;75.44;102714.84;5010261;28;20096;-80
2021/12/20 10:37:58;;;;;;;19.15;4.68;;;;;;;6.19;75.12;102714.88;4992813;28;20070;-80
2021/12/20 10:40:24;;;;;;;17.50;3.95;;;;;;;6.18;74.81;102718.47;4991414;28;20411;-80
2021/12/20 10:42:51;;;;;;;26.60;4.50;;;;;;;6.15;75.54;102716.78;5009885;28;20032;-79
2021/12/20 10:45:19;;;;;;;19.15;3.92;;;;;;;6.16;76.00;102713.16;4991164;28;20320;-79
2021/12/20 10:47:46;;;;;;;23.73;5.05;;;;;;;6.16;75.54;102717.63;4992184;28;20045;-79
2021/12/20 10:50:28;;;;;;;21.77;4.28;;;;;;;6.18;76.91;102715.78;5009570;28;20022;-79
2021/12/20 10:53:11;;;;;;;16.27;3.83;;;;;;;6.17;77.06;102714.94;4992007;28;20665;-79
2021/12/20 10:55:57;;;;;;;22.08;4.88;;;;;;;6.19;77.51;102712.22;4991113;28;20030;-79
2021/12/20 10:58:29;;;;;;;20.38;4.28;;;;;;;6.21;76.65;102707.69;4991577;28;20193;-79
2021/12/20 11:01:10;;;;;;;19.92;4.45;;;;;;;6.20;77.22;102709.50;5023900;28;20079;-79
2021/12/20 11:03:38;;;;;;;20.95;4.80;;;;;;;6.18;76.42;102700.66;5028785;28;20025;-80
2021/12/20 11:11:25;;;;;;;25.35;4.78;;;;;;;6.23;76.14;102704.09;4989355;28;20462;-79
2021/12/20 11:13:50;;;;;;;20.55;4.18;;;;;;;6.25;76.30;102706.72;4989738;28;20041;-79
2021/12/20 11:16:28;;;;;;;20.35;4.22;;;;;;;6.29;76.88;102708.41;4987141;28;20022;-80
2021/12/20 11:19:13;;;;;;;21.05;4.30;;;;;;;6.33;76.94;102714.56;4989290;28;20022;-80
2021/12/20 11:22:22;;;;;;;24.27;4.60;;;;;;;6.30;76.61;102702.16;4988958;28;20060;-80
2021/12/20 11:24:57;;;;;;;24.08;4.85;;;;;;;6.32;76.53;102699.44;4974252;28;20120;-80
2021/12/20 11:27:25;;;;;;;17.88;3.95;;;;;;;6.30;75.89;102691.47;4988096;28;20607;-79
2021/12/20 11:29:54;;;;;;;19.88;4.88;;;;;;;6.34;76.56;102694.91;4989355;28;20027;-79
2021/12/20 11:32:24;;;;;;;17.73;3.80;;;;;;;6.34;75.81;102694.91;4990271;28;20034;-79
2021/12/20 11:34:50;;;;;;;21.13;4.45;;;;;;;6.37;77.18;102697.50;4989530;28;20034;-79
2021/12/20 11:37:18;;;;;;;22.20;4.80;;;;;;;6.40;76.66;102701.00;4986695;28;20092;-79
2021/12/20 11:39:45;;;;;;;19.38;3.80;;;;;;;6.40;75.28;102700.09;4969540;28;20077;-79
2021/12/20 11:42:12;;;;;;;15.93;3.60;;;;;;;6.45;75.33;102703.53;4968535;28;20041;-80